Terminal Aerodrome Forecast
Issued by NWS

Home | Current Version | Previous Version | Text Only | Print | Product List | Glossary On
Versions: 1 2 3 4 5 6 7 8 9 10 11 12 13 14 15 16
000
FTUS46 KSGX 180520
TAFONT
TAF
KONT 180520Z 1806/1912 VRB06KT P6SM SCT200
     FM181200 VRB03KT 5SM BR SCT008
     FM181600 VRB05KT P6SM FEW010
     FM182100 26008KT P6SM SCT050 BKN200
     FM190300 VRB05KT P6SM BKN035
     FM190500 VRB04KT P6SM VCSH BKN025
     FM191000 VRB04KT 6SM -SHRA BR SCT015 BKN020=

USA.gov is the U.S. government's official web portal to all federal, state and local government web resources and services.